createdAt,value
2022-11-28T00:04:10.436Z,2.4
2022-11-28T00:09:16.533Z,2.4
2022-11-28T00:14:22.654Z,2.5
2022-11-28T00:19:28.786Z,2.5
2022-11-28T00:24:34.892Z,2.6
2022-11-28T00:29:41.013Z,2.5
2022-11-28T00:34:47.119Z,2.5
2022-11-28T00:39:53.239Z,2.4
2022-11-28T00:44:59.408Z,2.5
2022-11-28T00:50:05.451Z,2.4
2022-11-28T00:55:11.566Z,2.4
2022-11-28T01:00:16.712Z,2.4
2022-11-28T01:05:22.821Z,2.4
2022-11-28T01:10:28.938Z,2.4
2022-11-28T01:15:35.034Z,2.4
2022-11-28T01:20:41.158Z,2.4
2022-11-28T01:25:47.276Z,2.4
2022-11-28T01:30:53.381Z,2.5
2022-11-28T01:35:59.639Z,2.5
2022-11-28T01:41:05.606Z,2.5
2022-11-28T01:46:11.725Z,2.5
2022-11-28T01:51:17.836Z,2.5
2022-11-28T01:56:23.956Z,2.5
2022-11-28T02:01:30.078Z,2.5
2022-11-28T02:06:35.226Z,2.5
2022-11-28T02:11:41.314Z,2.4
2022-11-28T02:16:47.430Z,2.4
2022-11-28T02:21:53.548Z,2.4
2022-11-28T02:26:59.659Z,2.3
2022-11-28T02:32:05.801Z,2.3
2022-11-28T02:37:11.932Z,2.3
2022-11-28T02:42:18.013Z,2.3
2022-11-28T02:47:24.156Z,2.2
2022-11-28T02:52:30.269Z,2.1
2022-11-28T02:57:36.470Z,2
2022-11-28T03:02:42.527Z,1.9
2022-11-28T03:07:48.601Z,1.8
2022-11-28T03:12:53.744Z,1.8
2022-11-28T03:17:59.875Z,1.8
2022-11-28T03:23:05.994Z,1.8
2022-11-28T03:28:12.094Z,1.8
2022-11-28T03:33:18.223Z,1.8
2022-11-28T03:38:24.369Z,1.9
2022-11-28T03:43:30.445Z,1.9
2022-11-28T03:48:36.560Z,1.9
2022-11-28T03:53:42.686Z,2
2022-11-28T03:58:48.808Z,1.9
2022-11-28T04:03:54.985Z,2
2022-11-28T04:09:01.114Z,1.9
2022-11-28T04:14:07.177Z,1.9
2022-11-28T04:19:12.322Z,2
2022-11-28T04:24:18.437Z,2
2022-11-28T04:29:24.550Z,2
2022-11-28T04:34:30.692Z,2
2022-11-28T04:39:36.778Z,2.1
2022-11-28T04:44:42.907Z,2.2
2022-11-28T04:49:49.024Z,2.2
2022-11-28T04:54:55.150Z,2.2
2022-11-28T05:00:01.333Z,2.2
2022-11-28T05:05:07.400Z,2.2
2022-11-28T05:10:13.512Z,2.2
2022-11-28T05:15:19.639Z,2.2
2022-11-28T05:20:25.753Z,2.2
2022-11-28T05:25:30.876Z,2.1
2022-11-28T05:30:37.002Z,2.2
2022-11-28T05:35:43.118Z,2.1
2022-11-28T05:40:49.247Z,2.1
2022-11-28T05:45:55.358Z,2.1
2022-11-28T05:51:01.465Z,2.1
2022-11-28T05:56:07.601Z,2.1
2022-11-28T06:01:13.795Z,2.1
2022-11-28T06:06:19.875Z,2.1
2022-11-28T06:11:26.013Z,2.1
2022-11-28T06:16:32.230Z,2.1
2022-11-28T06:21:38.181Z,2.1
2022-11-28T06:26:44.322Z,2.1
2022-11-28T06:31:49.432Z,2.1
2022-11-28T06:36:55.640Z,2.1
2022-11-28T06:42:01.744Z,2.1
2022-11-28T06:47:07.832Z,2.1
2022-11-28T06:52:13.887Z,2.1
2022-11-28T06:57:20.008Z,2.1
2022-11-28T07:02:25.190Z,2.1
2022-11-28T07:07:31.262Z,2.1
2022-11-28T07:12:37.368Z,2.2
2022-11-28T07:17:43.537Z,2.2
2022-11-28T07:22:49.697Z,2.2
2022-11-28T07:27:55.738Z,2.2
2022-11-28T07:33:01.860Z,2.3
2022-11-28T07:38:07.988Z,2.3
2022-11-28T07:43:14.144Z,2.3
2022-11-28T07:48:20.297Z,2.4
2022-11-28T07:53:26.466Z,2.5
2022-11-28T07:58:32.554Z,2.5
2022-11-28T08:03:38.757Z,2.6
2022-11-28T08:08:44.030Z,2.7
2022-11-28T08:13:49.961Z,2.8
2022-11-28T08:18:56.151Z,2.9
2022-11-28T08:24:02.188Z,2.9
2022-11-28T08:29:08.319Z,3
2022-11-28T08:34:14.357Z,3.1
2022-11-28T08:39:20.543Z,3
2022-11-28T08:44:26.648Z,3
2022-11-28T08:49:32.722Z,3.1
2022-11-28T08:54:38.838Z,3.1
2022-11-28T08:59:44.987Z,3.2
2022-11-28T09:04:51.089Z,3.2
2022-11-28T09:09:57.248Z,3.4
2022-11-28T09:15:02.337Z,3.4
2022-11-28T09:20:08.387Z,3.5
2022-11-28T09:25:14.572Z,3.6
2022-11-28T09:30:20.526Z,3.6
2022-11-28T09:35:26.656Z,3.7
2022-11-28T09:40:32.783Z,3.5
2022-11-28T09:45:39.049Z,3.5
2022-11-28T09:50:44.978Z,3.6
2022-11-28T09:55:51.200Z,3.8
2022-11-28T10:00:57.310Z,3.8
2022-11-28T10:06:03.432Z,4.2
2022-11-28T10:11:09.546Z,4.7
2022-11-28T10:16:15.532Z,4.7
2022-11-28T10:21:20.759Z,4.6
2022-11-28T10:26:26.970Z,4.4
2022-11-28T10:31:33.059Z,4.4
2022-11-28T10:36:39.153Z,4.4
2022-11-28T10:41:45.287Z,4.5
2022-11-28T10:46:51.374Z,4.5
2022-11-28T10:51:57.477Z,4.6
2022-11-28T10:57:03.575Z,4.5
2022-11-28T11:02:09.632Z,4.5
2022-11-28T11:07:15.760Z,4.7
2022-11-28T11:12:21.787Z,4.5
2022-11-28T11:17:27.967Z,4.6
2022-11-28T11:22:34.005Z,4.6
2022-11-28T11:27:39.257Z,4.5
2022-11-28T11:32:45.256Z,4.4
2022-11-28T11:37:51.435Z,4.3
2022-11-28T11:42:57.609Z,4.3
2022-11-28T11:48:03.610Z,4.2
2022-11-28T11:53:09.879Z,4.2
2022-11-28T11:58:15.992Z,4.2
2022-11-28T12:03:21.991Z,4.2
2022-11-28T12:08:28.197Z,4.2
2022-11-28T12:13:34.318Z,4.2
2022-11-28T12:23:46.389Z,4.3
2022-11-28T12:28:52.486Z,4.3
2022-11-28T12:33:57.816Z,4.2
2022-11-28T12:39:03.932Z,4.3
2022-11-28T12:44:10.034Z,4.3
2022-11-28T12:49:15.955Z,4.3
2022-11-28T12:54:22.089Z,4.3
2022-11-28T12:59:28.422Z,4.4
2022-11-28T13:04:34.432Z,4.3
2022-11-28T13:09:40.394Z,4.3
2022-11-28T13:14:46.682Z,4.3
2022-11-28T13:19:52.631Z,4.3
2022-11-28T13:24:58.881Z,4.3
2022-11-28T13:30:04.850Z,4.3
2022-11-28T13:35:10.990Z,4.3
2022-11-28T13:40:16.281Z,4.3
2022-11-28T13:45:22.211Z,4.3
2022-11-28T13:50:28.312Z,4.2
2022-11-28T13:55:34.553Z,4.2
2022-11-28T14:00:40.719Z,4.2
2022-11-28T14:05:46.670Z,4.2
2022-11-28T14:10:52.794Z,4.2
2022-11-28T14:15:59.133Z,4.1
2022-11-28T14:21:05.017Z,4.1
2022-11-28T14:26:11.194Z,4.2
2022-11-28T14:31:17.291Z,4.2
2022-11-28T14:36:23.587Z,4.1
2022-11-28T14:41:29.635Z,4.1
2022-11-28T14:46:34.603Z,4
2022-11-28T14:51:40.793Z,4
2022-11-28T14:56:47.077Z,4
2022-11-28T15:01:52.946Z,4
2022-11-28T15:06:59.069Z,3.9
2022-11-28T15:12:05.302Z,3.9
2022-11-28T15:17:11.368Z,3.9
2022-11-28T15:22:17.475Z,3.8
2022-11-28T15:27:23.528Z,3.8
2022-11-28T15:32:29.655Z,3.8
2022-11-28T15:37:35.773Z,3.9
2022-11-28T15:42:41.881Z,3.8
2022-11-28T15:47:48.007Z,3.8
2022-11-28T15:52:53.124Z,3.8
2022-11-28T15:57:59.239Z,3.8
2022-11-28T16:03:05.355Z,3.8
2022-11-28T16:08:11.476Z,3.8
2022-11-28T16:13:17.574Z,3.8
2022-11-28T16:18:23.703Z,3.8
2022-11-28T16:23:29.821Z,3.8
2022-11-28T16:28:35.927Z,3.8
2022-11-28T16:33:42.041Z,3.9
2022-11-28T16:38:48.161Z,3.9
2022-11-28T16:43:54.277Z,3.8
2022-11-28T16:49:00.389Z,3.8
2022-11-28T16:54:06.503Z,3.7
2022-11-28T16:59:11.620Z,3.7
2022-11-28T17:04:17.737Z,3.7
2022-11-28T17:09:23.865Z,3.7
2022-11-28T17:14:29.977Z,3.6
2022-11-28T17:19:36.093Z,3.7
2022-11-28T17:24:42.218Z,3.7
2022-11-28T17:29:48.361Z,3.7
2022-11-28T17:34:54.494Z,3.7
2022-11-28T17:40:00.602Z,3.7
2022-11-28T17:45:06.712Z,3.6
2022-11-28T17:50:12.825Z,3.6
2022-11-28T17:55:18.999Z,3.5
2022-11-28T18:00:25.091Z,3.5
2022-11-28T18:05:30.200Z,3.5
2022-11-28T18:10:36.329Z,3.5
2022-11-28T18:15:42.434Z,3.5
2022-11-28T18:20:48.551Z,3.4
2022-11-28T18:25:54.684Z,3.4
2022-11-28T18:31:00.792Z,3.4
2022-11-28T18:36:06.902Z,3.4
2022-11-28T18:41:13.044Z,3.4
2022-11-28T18:46:19.134Z,3.3
2022-11-28T18:51:25.254Z,3.3
2022-11-28T18:56:31.377Z,3.3
2022-11-28T19:01:37.486Z,3.3
2022-11-28T19:06:43.606Z,3.2
2022-11-28T19:11:48.756Z,3.2
2022-11-28T19:16:54.870Z,3.2
2022-11-28T19:22:00.973Z,3.2
2022-11-28T19:27:07.092Z,3.3
2022-11-28T19:32:13.209Z,3.2
2022-11-28T19:37:19.340Z,3.3
2022-11-28T19:42:25.467Z,3.3
2022-11-28T19:47:31.578Z,3.2
2022-11-28T19:52:37.687Z,3.2
2022-11-28T19:57:43.808Z,3.2
2022-11-28T20:02:49.916Z,3.3
2022-11-28T20:07:56.034Z,3.2
2022-11-28T20:13:02.150Z,3.2
2022-11-28T20:18:07.279Z,3.2
2022-11-28T20:23:13.407Z,3.1
2022-11-28T20:28:19.522Z,3.1
2022-11-28T20:33:25.643Z,3.1
2022-11-28T20:38:31.747Z,3.2
2022-11-28T20:43:37.876Z,3.1
2022-11-28T20:48:43.998Z,3.1
2022-11-28T20:53:50.105Z,3.1
2022-11-28T20:58:56.223Z,3.1
2022-11-28T21:04:02.350Z,3.1
2022-11-28T21:09:08.470Z,3.1
2022-11-28T21:14:14.584Z,3
2022-11-28T21:19:20.792Z,3
2022-11-28T21:24:25.824Z,3
2022-11-28T21:29:31.949Z,2.9
2022-11-28T21:34:38.071Z,2.9
2022-11-28T21:39:44.186Z,3
2022-11-28T21:44:50.299Z,2.9
2022-11-28T21:49:56.431Z,2.9
2022-11-28T21:55:02.544Z,2.9
2022-11-28T22:00:08.671Z,2.8
2022-11-28T22:05:14.802Z,2.8
2022-11-28T22:10:20.903Z,2.8
2022-11-28T22:15:27.208Z,2.8
2022-11-28T22:20:33.204Z,2.8
2022-11-28T22:25:39.276Z,2.8
2022-11-28T22:30:44.390Z,2.7
2022-11-28T22:35:50.509Z,2.7
2022-11-28T22:40:56.635Z,2.7
2022-11-28T22:46:02.760Z,2.7
2022-11-28T22:51:08.862Z,2.7
2022-11-28T22:56:14.973Z,2.7
2022-11-28T23:01:21.100Z,2.7
2022-11-28T23:06:27.209Z,2.6
2022-11-28T23:11:33.352Z,2.6
2022-11-28T23:16:39.482Z,2.5
2022-11-28T23:21:45.599Z,2.5
2022-11-28T23:26:51.731Z,2.5
2022-11-28T23:31:57.845Z,2.5
2022-11-28T23:37:02.976Z,2.5
2022-11-28T23:42:09.105Z,2.4
2022-11-28T23:47:15.211Z,2.4
2022-11-28T23:52:21.321Z,2.4
2022-11-28T23:57:27.449Z,2.4
